Elizabeth Prince — WDJ6817 — position and weather

sailwx.info

Track history (hours):
 
Tides and Currents Weather Stations Pressure Air Temp Water Temp Dewpoint Dewpoint Depression Visibility Wind Speed Wind Dir Waves Ship Positions

Elizabeth Prince

Owner: Genesis Marine,LLC, Houston, TX. More information available from US FCC via Universal Licensing System and Coast Guard Vessel Documentation Center.

Last reported at 2017-Sep-19 11:11 UTC. Time now 2017-Sep-22 19:15 UTC.
Position N 29°29' W 094°52'.

Length 27 m; draft 2.6 m.

Type: Towing. MMSI: 368000510.

Date/timePositionNaut miles runAvg speedWind from/ knotsBaromVisibWave heightAir tempDewpointWater temp
2017-Sep-19 11:11N 29°29' W 094°52'1 6.0
2017-Sep-19 11:00N 29°30' W 094°52'3 6.3
2017-Sep-19 10:28N 29°33' W 094°54'3 6.5
2017-Sep-19 09:59N 29°35' W 094°56'3 6.8
2017-Sep-19 09:30N 29°38' W 094°58'4 7.1
2017-Sep-19 09:01N 29°41' W 094°59'3 6.0
2017-Sep-19 08:30N 29°44' W 095°02'4 5.8
2017-Sep-19 07:54N 29°46' W 095°05'2 3.1
2017-Sep-19 07:21N 29°47' W 095°04'0 0.2
2017-Sep-19 07:00N 29°47' W 095°04'0 0.0
2017-Sep-19 06:30N 29°47' W 095°04'0 0.1
2017-Sep-19 05:55N 29°47' W 095°04'0 0.0
2017-Sep-19 05:16N 29°47' W 095°04'1 0.3
2017-Sep-19 02:23N 29°47' W 095°04'1 2.7
2017-Sep-19 02:00N 29°46' W 095°05'2 4.1
2017-Sep-19 01:30N 29°44' W 095°03'2 4.5
2017-Sep-19 01:00N 29°43' W 095°01'3 5.7
2017-Sep-19 00:31N 29°41' W 094°59'3 6.8
2017-Sep-19 00:01N 29°38' W 094°58'3 6.8
2017-Sep-18 23:30N 29°35' W 094°56'4 7.5
2017-Sep-18 23:01N 29°32' W 094°53'  
Track history (hours):
 
Tides and Currents Weather Stations Pressure Air Temp Water Temp Dewpoint Dewpoint Depression Visibility Wind Speed Wind Dir Waves Ship Positions

Elizabeth Prince

Owner: Genesis Marine,LLC, Houston, TX. More information available from US FCC via Universal Licensing System and Coast Guard Vessel Documentation Center.

Last reported at 2017-Sep-19 11:11 UTC. Time now 2017-Sep-22 19:15 UTC.
Position N 29°29' W 094°52'.

Length 27 m; draft 2.6 m.

Type: Towing. MMSI: 368000510.

Date/timePositionNaut miles runAvg speedWind from/ knotsBaromVisibWave heightAir tempDewpointWater temp
2017-Sep-19 11:11N 29°29' W 094°52'1 6.0
2017-Sep-19 11:00N 29°30' W 094°52'3 6.3
2017-Sep-19 10:28N 29°33' W 094°54'3 6.5
2017-Sep-19 09:59N 29°35' W 094°56'3 6.8
2017-Sep-19 09:30N 29°38' W 094°58'4 7.1
2017-Sep-19 09:01N 29°41' W 094°59'3 6.0
2017-Sep-19 08:30N 29°44' W 095°02'4 5.8
2017-Sep-19 07:54N 29°46' W 095°05'2 3.1
2017-Sep-19 07:21N 29°47' W 095°04'0 0.2
2017-Sep-19 07:00N 29°47' W 095°04'0 0.0
2017-Sep-19 06:30N 29°47' W 095°04'0 0.1
2017-Sep-19 05:55N 29°47' W 095°04'0 0.0
2017-Sep-19 05:16N 29°47' W 095°04'1 0.3
2017-Sep-19 02:23N 29°47' W 095°04'1 2.7
2017-Sep-19 02:00N 29°46' W 095°05'2 4.1
2017-Sep-19 01:30N 29°44' W 095°03'2 4.5
2017-Sep-19 01:00N 29°43' W 095°01'3 5.7
2017-Sep-19 00:31N 29°41' W 094°59'3 6.8
2017-Sep-19 00:01N 29°38' W 094°58'3 6.8
2017-Sep-18 23:30N 29°35' W 094°56'4 7.5
2017-Sep-18 23:01N 29°32' W 094°53'  

Dump ship's entire track history